sensor_id;sensor_type;location;lat;lon;timestamp;pressure;altitude;pressure_sealevel;temperature;humidity
40205;BME280;26963;42.666;23.366;2022-08-04T21:45:09;95051.56;;;23.75;47.97
40205;BME280;26963;42.666;23.366;2022-08-04T21:47:34;95069.69;;;23.90;47.21
40205;BME280;26963;42.666;23.366;2022-08-04T21:50:03;95019.00;;;23.55;45.98
40205;BME280;26963;42.666;23.366;2022-08-04T21:52:38;95098.78;;;24.06;45.99
40205;BME280;26963;42.666;23.366;2022-08-04T21:55:09;95083.78;;;23.92;46.39
40205;BME280;26963;42.666;23.366;2022-08-04T21:57:34;95083.50;;;24.01;46.78
40205;BME280;26963;42.666;23.366;2022-08-04T22:00:00;95079.97;;;24.01;47.08
40205;BME280;26963;42.666;23.366;2022-08-04T22:02:26;95076.09;;;24.02;46.92
40205;BME280;26963;42.666;23.366;2022-08-04T22:04:51;95098.44;;;24.11;47.05
40205;BME280;26963;42.666;23.366;2022-08-04T22:07:17;95042.91;;;23.66;47.87
40205;BME280;26963;42.666;23.366;2022-08-04T22:09:43;95102.19;;;23.96;47.26
40205;BME280;26963;42.666;23.366;2022-08-04T22:12:15;95073.03;;;23.73;47.04
40205;BME280;26963;42.666;23.366;2022-08-04T22:14:43;95030.94;;;23.40;47.10
40205;BME280;26963;42.666;23.366;2022-08-04T22:17:09;95092.97;;;23.77;47.15
40205;BME280;26963;42.666;23.366;2022-08-04T22:19:34;95072.53;;;23.64;47.51
40205;BME280;26963;42.666;23.366;2022-08-04T22:22:00;95063.84;;;23.54;48.72
40205;BME280;26963;42.666;23.366;2022-08-04T22:24:25;95101.44;;;23.68;50.26
40205;BME280;26963;42.666;23.366;2022-08-04T22:26:51;95093.47;;;23.52;49.52
40205;BME280;26963;42.666;23.366;2022-08-04T22:29:16;95093.44;;;23.49;48.15
40205;BME280;26963;42.666;23.366;2022-08-04T22:31:42;95086.03;;;23.49;47.89
40205;BME280;26963;42.666;23.366;2022-08-04T22:34:08;95082.03;;;23.43;47.33
40205;BME280;26963;42.666;23.366;2022-08-04T22:36:34;95104.81;;;23.54;46.25
40205;BME280;26963;42.666;23.366;2022-08-04T22:39:00;95101.34;;;23.57;45.86
40205;BME280;26963;42.666;23.366;2022-08-04T22:41:28;95093.22;;;23.65;45.40
40205;BME280;26963;42.666;23.366;2022-08-04T22:43:54;95087.69;;;23.57;44.80
40205;BME280;26963;42.666;23.366;2022-08-04T22:46:25;95092.72;;;23.55;44.74
40205;BME280;26963;42.666;23.366;2022-08-04T22:48:56;95007.03;;;23.03;45.26
40205;BME280;26963;42.666;23.366;2022-08-04T22:51:22;95091.09;;;23.51;45.55
40205;BME280;26963;42.666;23.366;2022-08-04T22:53:49;95098.53;;;23.50;45.57
40205;BME280;26963;42.666;23.366;2022-08-04T22:56:16;95100.09;;;23.51;45.29
40205;BME280;26963;42.666;23.366;2022-08-04T22:58:43;95096.50;;;23.43;46.23
40205;BME280;26963;42.666;23.366;2022-08-04T23:01:09;95040.31;;;23.12;46.49
40205;BME280;26963;42.666;23.366;2022-08-04T23:03:38;95093.28;;;23.38;46.59
40205;BME280;26963;42.666;23.366;2022-08-04T23:06:08;95104.22;;;23.38;46.81
40205;BME280;26963;42.666;23.366;2022-08-04T23:08:34;95084.59;;;23.28;46.86
40205;BME280;26963;42.666;23.366;2022-08-04T23:11:09;95071.19;;;23.16;47.33
40205;BME280;26963;42.666;23.366;2022-08-04T23:13:35;95057.72;;;23.04;49.53
40205;BME280;26963;42.666;23.366;2022-08-04T23:16:07;95028.19;;;22.79;47.07
40205;BME280;26963;42.666;23.366;2022-08-04T23:18:33;95080.53;;;23.15;46.98
40205;BME280;26963;42.666;23.366;2022-08-04T23:20:59;95077.06;;;23.18;45.78
40205;BME280;26963;42.666;23.366;2022-08-04T23:23:42;95091.53;;;23.22;44.88
40205;BME280;26963;42.666;23.366;2022-08-04T23:26:12;95082.94;;;23.20;44.82
40205;BME280;26963;42.666;23.366;2022-08-04T23:28:39;95031.75;;;22.83;44.74
40205;BME280;26963;42.666;23.366;2022-08-04T23:31:05;95089.81;;;23.14;45.54
40205;BME280;26963;42.666;23.366;2022-08-04T23:33:34;95067.00;;;22.95;46.38
40205;BME280;26963;42.666;23.366;2022-08-04T23:35:59;95071.97;;;22.90;48.92
40205;BME280;26963;42.666;23.366;2022-08-04T23:38:25;95002.28;;;22.39;47.54
40205;BME280;26963;42.666;23.366;2022-08-04T23:40:51;95089.53;;;22.92;48.45
40205;BME280;26963;42.666;23.366;2022-08-04T23:43:17;95025.16;;;22.57;48.84
40205;BME280;26963;42.666;23.366;2022-08-04T23:45:50;95086.25;;;22.79;50.80
40205;BME280;26963;42.666;23.366;2022-08-04T23:48:16;95076.84;;;22.77;50.35
40205;BME280;26963;42.666;23.366;2022-08-04T23:50:50;95077.22;;;22.75;51.76
40205;BME280;26963;42.666;23.366;2022-08-04T23:53:15;95079.00;;;22.64;51.31
40205;BME280;26963;42.666;23.366;2022-08-04T23:55:41;95080.53;;;22.61;51.61
40205;BME280;26963;42.666;23.366;2022-08-04T23:58:09;95089.09;;;22.63;51.16
